sensor_id;sensor_type;location;lat;lon;timestamp;P1;durP1;ratioP1;P2;durP2;ratioP2
70312;SDS011;57723;51.698;5.344;2023-03-03T00:01:54;1.93;;;0.90;;
70312;SDS011;57723;51.698;5.344;2023-03-03T00:04:20;2.10;;;1.07;;
70312;SDS011;57723;51.698;5.344;2023-03-03T00:06:45;1.63;;;1.00;;
70312;SDS011;57723;51.698;5.344;2023-03-03T00:09:10;2.70;;;1.10;;
70312;SDS011;57723;51.698;5.344;2023-03-03T00:11:35;1.70;;;1.00;;
70312;SDS011;57723;51.698;5.344;2023-03-03T00:14:01;2.03;;;1.03;;
70312;SDS011;57723;51.698;5.344;2023-03-03T00:16:30;2.10;;;0.87;;
70312;SDS011;57723;51.698;5.344;2023-03-03T00:18:56;2.60;;;1.02;;
70312;SDS011;57723;51.698;5.344;2023-03-03T00:23:47;1.90;;;1.00;;
70312;SDS011;57723;51.698;5.344;2023-03-03T00:26:17;1.57;;;0.80;;
70312;SDS011;57723;51.698;5.344;2023-03-03T00:28:49;2.78;;;1.10;;
70312;SDS011;57723;51.698;5.344;2023-03-03T00:31:16;1.53;;;0.80;;
70312;SDS011;57723;51.698;5.344;2023-03-03T00:33:44;1.80;;;0.93;;
70312;SDS011;57723;51.698;5.344;2023-03-03T00:38:41;2.30;;;1.10;;
70312;SDS011;57723;51.698;5.344;2023-03-03T00:41:19;2.30;;;1.10;;
70312;SDS011;57723;51.698;5.344;2023-03-03T00:43:46;2.23;;;0.97;;
70312;SDS011;57723;51.698;5.344;2023-03-03T00:46:14;2.33;;;1.03;;
70312;SDS011;57723;51.698;5.344;2023-03-03T00:48:41;2.63;;;1.20;;
70312;SDS011;57723;51.698;5.344;2023-03-03T00:51:24;2.72;;;1.10;;
70312;SDS011;57723;51.698;5.344;2023-03-03T00:53:50;2.35;;;1.17;;
70312;SDS011;57723;51.698;5.344;2023-03-03T00:56:15;2.40;;;1.15;;
70312;SDS011;57723;51.698;5.344;2023-03-03T00:58:41;2.42;;;1.00;;
70312;SDS011;57723;51.698;5.344;2023-03-03T01:01:11;2.42;;;1.20;;
70312;SDS011;57723;51.698;5.344;2023-03-03T01:03:36;2.50;;;1.03;;
70312;SDS011;57723;51.698;5.344;2023-03-03T01:06:02;2.58;;;0.90;;
70312;SDS011;57723;51.698;5.344;2023-03-03T01:08:27;2.20;;;1.00;;
70312;SDS011;57723;51.698;5.344;2023-03-03T01:10:53;2.30;;;1.17;;
70312;SDS011;57723;51.698;5.344;2023-03-03T01:13:20;3.08;;;1.23;;
70312;SDS011;57723;51.698;5.344;2023-03-03T01:15:47;2.42;;;1.00;;
70312;SDS011;57723;51.698;5.344;2023-03-03T01:18:12;4.33;;;1.20;;
70312;SDS011;57723;51.698;5.344;2023-03-03T01:20:38;2.10;;;1.02;;
70312;SDS011;57723;51.698;5.344;2023-03-03T01:23:03;2.50;;;0.93;;
70312;SDS011;57723;51.698;5.344;2023-03-03T01:25:29;2.43;;;1.10;;
70312;SDS011;57723;51.698;5.344;2023-03-03T01:27:54;2.20;;;0.90;;
70312;SDS011;57723;51.698;5.344;2023-03-03T01:30:19;2.70;;;1.13;;
70312;SDS011;57723;51.698;5.344;2023-03-03T01:32:45;2.13;;;1.10;;
70312;SDS011;57723;51.698;5.344;2023-03-03T01:35:13;2.08;;;1.10;;
70312;SDS011;57723;51.698;5.344;2023-03-03T01:37:38;1.50;;;0.93;;
70312;SDS011;57723;51.698;5.344;2023-03-03T01:40:05;3.05;;;1.20;;
70312;SDS011;57723;51.698;5.344;2023-03-03T01:42:34;2.40;;;1.15;;
70312;SDS011;57723;51.698;5.344;2023-03-03T01:52:55;3.10;;;1.00;;
70312;SDS011;57723;51.698;5.344;2023-03-03T01:55:23;1.90;;;0.90;;
70312;SDS011;57723;51.698;5.344;2023-03-03T02:00:46;3.28;;;1.38;;
70312;SDS011;57723;51.698;5.344;2023-03-03T02:03:14;2.83;;;1.38;;
70312;SDS011;57723;51.698;5.344;2023-03-03T02:05:42;2.58;;;1.13;;
70312;SDS011;57723;51.698;5.344;2023-03-03T02:08:09;1.92;;;1.00;;
70312;SDS011;57723;51.698;5.344;2023-03-03T02:10:36;2.53;;;1.30;;
70312;SDS011;57723;51.698;5.344;2023-03-03T02:13:01;3.10;;;1.37;;
70312;SDS011;57723;51.698;5.344;2023-03-03T02:15:28;1.88;;;0.95;;
70312;SDS011;57723;51.698;5.344;2023-03-03T02:17:54;2.78;;;1.30;;
70312;SDS011;57723;51.698;5.344;2023-03-03T02:22:47;2.63;;;1.10;;
70312;SDS011;57723;51.698;5.344;2023-03-03T02:25:15;2.57;;;1.20;;
70312;SDS011;57723;51.698;5.344;2023-03-03T02:27:43;2.28;;;1.10;;
70312;SDS011;57723;51.698;5.344;2023-03-03T02:30:19;3.20;;;1.23;;
70312;SDS011;57723;51.698;5.344;2023-03-03T02:32:44;2.60;;;1.10;;
70312;SDS011;57723;51.698;5.344;2023-03-03T02:37:54;2.92;;;1.23;;
70312;SDS011;57723;51.698;5.344;2023-03-03T02:40:20;2.75;;;1.20;;
70312;SDS011;57723;51.698;5.344;2023-03-03T02:42:48;2.10;;;0.95;;
70312;SDS011;57723;51.698;5.344;2023-03-03T02:45:16;3.37;;;1.50;;
70312;SDS011;57723;51.698;5.344;2023-03-03T02:47:47;2.80;;;1.38;;
70312;SDS011;57723;51.698;5.344;2023-03-03T02:50:12;2.15;;;1.15;;
70312;SDS011;57723;51.698;5.344;2023-03-03T02:52:38;3.30;;;1.30;;
70312;SDS011;57723;51.698;5.344;2023-03-03T02:55:03;2.40;;;1.20;;
70312;SDS011;57723;51.698;5.344;2023-03-03T02:57:29;2.30;;;1.20;;
70312;SDS011;57723;51.698;5.344;2023-03-03T02:59:58;2.90;;;1.00;;
70312;SDS011;57723;51.698;5.344;2023-03-03T03:02:23;2.80;;;1.17;;
70312;SDS011;57723;51.698;5.344;2023-03-03T03:04:48;2.83;;;1.20;;
70312;SDS011;57723;51.698;5.344;2023-03-03T03:07:14;3.77;;;1.20;;
70312;SDS011;57723;51.698;5.344;2023-03-03T03:09:39;3.50;;;1.40;;
70312;SDS011;57723;51.698;5.344;2023-03-03T03:12:04;2.92;;;1.00;;
70312;SDS011;57723;51.698;5.344;2023-03-03T03:14:30;3.05;;;1.30;;
70312;SDS011;57723;51.698;5.344;2023-03-03T03:16:55;3.97;;;1.20;;
70312;SDS011;57723;51.698;5.344;2023-03-03T03:19:20;3.47;;;1.20;;
70312;SDS011;57723;51.698;5.344;2023-03-03T03:21:46;2.70;;;1.30;;
70312;SDS011;57723;51.698;5.344;2023-03-03T03:24:11;2.60;;;1.10;;
70312;SDS011;57723;51.698;5.344;2023-03-03T03:26:36;2.43;;;1.20;;
70312;SDS011;57723;51.698;5.344;2023-03-03T03:29:01;2.00;;;1.17;;
70312;SDS011;57723;51.698;5.344;2023-03-03T03:31:27;3.43;;;1.37;;
70312;SDS011;57723;51.698;5.344;2023-03-03T03:33:52;2.67;;;1.20;;
70312;SDS011;57723;51.698;5.344;2023-03-03T03:36:17;4.40;;;1.10;;
70312;SDS011;57723;51.698;5.344;2023-03-03T03:38:43;2.27;;;1.20;;
70312;SDS011;57723;51.698;5.344;2023-03-03T03:41:08;2.17;;;1.10;;
70312;SDS011;57723;51.698;5.344;2023-03-03T03:43:33;2.58;;;1.30;;
70312;SDS011;57723;51.698;5.344;2023-03-03T03:45:59;1.87;;;1.00;;
70312;SDS011;57723;51.698;5.344;2023-03-03T03:48:24;2.37;;;1.10;;
70312;SDS011;57723;51.698;5.344;2023-03-03T03:50:49;2.50;;;1.20;;
70312;SDS011;57723;51.698;5.344;2023-03-03T03:53:17;2.17;;;1.02;;
70312;SDS011;57723;51.698;5.344;2023-03-03T03:55:43;2.47;;;1.20;;
70312;SDS011;57723;51.698;5.344;2023-03-03T03:58:10;2.23;;;1.00;;
70312;SDS011;57723;51.698;5.344;2023-03-03T04:00:38;3.10;;;1.70;;
70312;SDS011;57723;51.698;5.344;2023-03-03T04:03:03;2.97;;;1.38;;
70312;SDS011;57723;51.698;5.344;2023-03-03T04:05:29;3.07;;;0.90;;
70312;SDS011;57723;51.698;5.344;2023-03-03T04:07:54;3.47;;;1.40;;
70312;SDS011;57723;51.698;5.344;2023-03-03T04:10:20;3.60;;;1.10;;
70312;SDS011;57723;51.698;5.344;2023-03-03T04:12:45;2.45;;;1.20;;
70312;SDS011;57723;51.698;5.344;2023-03-03T04:15:11;2.25;;;1.17;;
70312;SDS011;57723;51.698;5.344;2023-03-03T04:17:37;2.50;;;1.20;;
70312;SDS011;57723;51.698;5.344;2023-03-03T04:20:02;2.08;;;1.00;;
70312;SDS011;57723;51.698;5.344;2023-03-03T04:22:29;2.60;;;1.03;;
70312;SDS011;57723;51.698;5.344;2023-03-03T04:24:59;2.33;;;1.17;;
70312;SDS011;57723;51.698;5.344;2023-03-03T04:27:24;4.15;;;1.15;;
70312;SDS011;57723;51.698;5.344;2023-03-03T04:29:50;4.83;;;1.60;;
70312;SDS011;57723;51.698;5.344;2023-03-03T04:32:15;2.93;;;1.40;;
70312;SDS011;57723;51.698;5.344;2023-03-03T04:34:42;2.13;;;1.05;;
70312;SDS011;57723;51.698;5.344;2023-03-03T04:37:08;2.97;;;1.20;;
70312;SDS011;57723;51.698;5.344;2023-03-03T04:39:33;2.93;;;1.23;;
70312;SDS011;57723;51.698;5.344;2023-03-03T04:41:59;2.10;;;1.07;;
70312;SDS011;57723;51.698;5.344;2023-03-03T04:44:24;2.70;;;1.10;;
70312;SDS011;57723;51.698;5.344;2023-03-03T04:46:49;2.50;;;1.10;;
70312;SDS011;57723;51.698;5.344;2023-03-03T04:49:14;2.80;;;1.17;;
70312;SDS011;57723;51.698;5.344;2023-03-03T04:51:40;3.37;;;1.37;;
70312;SDS011;57723;51.698;5.344;2023-03-03T04:54:05;2.45;;;1.00;;
70312;SDS011;57723;51.698;5.344;2023-03-03T04:56:31;2.67;;;0.93;;
70312;SDS011;57723;51.698;5.344;2023-03-03T04:58:56;3.10;;;1.50;;
70312;SDS011;57723;51.698;5.344;2023-03-03T05:01:22;2.83;;;1.10;;
70312;SDS011;57723;51.698;5.344;2023-03-03T05:03:47;2.57;;;1.13;;
70312;SDS011;57723;51.698;5.344;2023-03-03T05:06:13;4.47;;;1.20;;
70312;SDS011;57723;51.698;5.344;2023-03-03T05:08:38;3.83;;;0.90;;
70312;SDS011;57723;51.698;5.344;2023-03-03T05:11:03;6.13;;;1.77;;
70312;SDS011;57723;51.698;5.344;2023-03-03T05:13:29;2.80;;;1.07;;
70312;SDS011;57723;51.698;5.344;2023-03-03T05:15:55;2.33;;;1.10;;
70312;SDS011;57723;51.698;5.344;2023-03-03T05:18:21;4.25;;;1.05;;
70312;SDS011;57723;51.698;5.344;2023-03-03T05:20:47;3.15;;;1.02;;
70312;SDS011;57723;51.698;5.344;2023-03-03T05:23:12;4.67;;;1.23;;
70312;SDS011;57723;51.698;5.344;2023-03-03T05:25:39;2.80;;;1.10;;
70312;SDS011;57723;51.698;5.344;2023-03-03T05:28:04;2.72;;;1.20;;
70312;SDS011;57723;51.698;5.344;2023-03-03T05:30:30;2.08;;;1.08;;
70312;SDS011;57723;51.698;5.344;2023-03-03T05:32:56;2.70;;;1.17;;
70312;SDS011;57723;51.698;5.344;2023-03-03T05:35:23;2.92;;;1.20;;
70312;SDS011;57723;51.698;5.344;2023-03-03T05:37:48;3.37;;;1.30;;
70312;SDS011;57723;51.698;5.344;2023-03-03T05:40:14;4.68;;;1.13;;
70312;SDS011;57723;51.698;5.344;2023-03-03T05:42:39;1.88;;;1.08;;
70312;SDS011;57723;51.698;5.344;2023-03-03T05:45:05;2.47;;;1.20;;
70312;SDS011;57723;51.698;5.344;2023-03-03T05:47:32;2.70;;;1.20;;
70312;SDS011;57723;51.698;5.344;2023-03-03T05:49:58;4.22;;;1.40;;
70312;SDS011;57723;51.698;5.344;2023-03-03T05:52:25;3.40;;;1.50;;
70312;SDS011;57723;51.698;5.344;2023-03-03T05:54:50;2.87;;;1.40;;
70312;SDS011;57723;51.698;5.344;2023-03-03T05:57:15;4.13;;;1.50;;
70312;SDS011;57723;51.698;5.344;2023-03-03T05:59:41;3.30;;;1.40;;
70312;SDS011;57723;51.698;5.344;2023-03-03T06:02:06;5.13;;;1.60;;
70312;SDS011;57723;51.698;5.344;2023-03-03T06:04:34;4.57;;;1.30;;
70312;SDS011;57723;51.698;5.344;2023-03-03T06:07:00;3.22;;;1.30;;
70312;SDS011;57723;51.698;5.344;2023-03-03T06:09:25;2.37;;;1.03;;
70312;SDS011;57723;51.698;5.344;2023-03-03T06:11:51;2.78;;;1.05;;
70312;SDS011;57723;51.698;5.344;2023-03-03T06:14:19;2.87;;;1.37;;
70312;SDS011;57723;51.698;5.344;2023-03-03T06:16:45;3.40;;;1.38;;
70312;SDS011;57723;51.698;5.344;2023-03-03T06:19:11;3.53;;;1.40;;
70312;SDS011;57723;51.698;5.344;2023-03-03T06:21:36;4.40;;;1.40;;
70312;SDS011;57723;51.698;5.344;2023-03-03T06:24:02;39.60;;;36.90;;
70312;SDS011;57723;51.698;5.344;2023-03-03T06:26:27;25.60;;;23.40;;
70312;SDS011;57723;51.698;5.344;2023-03-03T06:28:53;12.00;;;1.63;;
70312;SDS011;57723;51.698;5.344;2023-03-03T06:31:19;4.75;;;1.40;;
70312;SDS011;57723;51.698;5.344;2023-03-03T06:33:45;6.73;;;2.43;;
70312;SDS011;57723;51.698;5.344;2023-03-03T06:36:10;2.83;;;1.25;;
70312;SDS011;57723;51.698;5.344;2023-03-03T06:38:36;3.30;;;2.00;;
70312;SDS011;57723;51.698;5.344;2023-03-03T06:41:01;7.60;;;3.40;;
70312;SDS011;57723;51.698;5.344;2023-03-03T06:43:31;9.93;;;9.13;;
70312;SDS011;57723;51.698;5.344;2023-03-03T06:45:56;18.23;;;16.93;;
70312;SDS011;57723;51.698;5.344;2023-03-03T06:48:22;26.43;;;24.83;;
70312;SDS011;57723;51.698;5.344;2023-03-03T06:50:47;28.00;;;26.08;;
70312;SDS011;57723;51.698;5.344;2023-03-03T06:53:14;33.97;;;31.70;;
70312;SDS011;57723;51.698;5.344;2023-03-03T06:55:40;33.78;;;31.67;;
70312;SDS011;57723;51.698;5.344;2023-03-03T06:58:12;34.22;;;32.13;;
70312;SDS011;57723;51.698;5.344;2023-03-03T07:00:42;35.63;;;33.53;;
70312;SDS011;57723;51.698;5.344;2023-03-03T07:05:37;36.88;;;34.53;;
70312;SDS011;57723;51.698;5.344;2023-03-03T07:08:04;33.33;;;31.10;;
70312;SDS011;57723;51.698;5.344;2023-03-03T07:10:30;33.88;;;31.67;;
70312;SDS011;57723;51.698;5.344;2023-03-03T07:12:57;34.37;;;32.27;;
70312;SDS011;57723;51.698;5.344;2023-03-03T07:15:43;32.70;;;30.75;;
70312;SDS011;57723;51.698;5.344;2023-03-03T07:20:54;33.07;;;30.53;;
70312;SDS011;57723;51.698;5.344;2023-03-03T07:23:24;34.78;;;32.58;;
70312;SDS011;57723;51.698;5.344;2023-03-03T07:25:50;36.47;;;34.28;;
70312;SDS011;57723;51.698;5.344;2023-03-03T07:30:45;35.70;;;33.60;;
70312;SDS011;57723;51.698;5.344;2023-03-03T07:33:18;35.40;;;33.13;;
70312;SDS011;57723;51.698;5.344;2023-03-03T07:35:44;35.67;;;33.40;;
70312;SDS011;57723;51.698;5.344;2023-03-03T07:38:20;36.75;;;34.45;;
70312;SDS011;57723;51.698;5.344;2023-03-03T07:40:48;32.95;;;30.95;;
70312;SDS011;57723;51.698;5.344;2023-03-03T07:43:30;35.42;;;33.25;;
70312;SDS011;57723;51.698;5.344;2023-03-03T07:46:00;33.65;;;31.65;;
70312;SDS011;57723;51.698;5.344;2023-03-03T07:48:34;36.85;;;34.50;;
70312;SDS011;57723;51.698;5.344;2023-03-03T07:51:02;36.30;;;33.90;;
70312;SDS011;57723;51.698;5.344;2023-03-03T07:53:28;35.55;;;33.45;;
70312;SDS011;57723;51.698;5.344;2023-03-03T07:55:58;34.97;;;32.65;;
70312;SDS011;57723;51.698;5.344;2023-03-03T07:58:33;36.73;;;34.53;;
70312;SDS011;57723;51.698;5.344;2023-03-03T08:03:41;35.63;;;33.53;;
70312;SDS011;57723;51.698;5.344;2023-03-03T08:06:23;33.22;;;31.23;;
70312;SDS011;57723;51.698;5.344;2023-03-03T08:08:53;35.05;;;33.00;;
70312;SDS011;57723;51.698;5.344;2023-03-03T08:11:18;33.10;;;31.00;;
70312;SDS011;57723;51.698;5.344;2023-03-03T08:13:44;36.73;;;34.53;;
70312;SDS011;57723;51.698;5.344;2023-03-03T08:18:37;35.83;;;33.63;;
70312;SDS011;57723;51.698;5.344;2023-03-03T08:21:23;37.22;;;35.03;;
70312;SDS011;57723;51.698;5.344;2023-03-03T08:23:49;35.08;;;33.08;;
70312;SDS011;57723;51.698;5.344;2023-03-03T08:26:19;35.85;;;33.55;;
70312;SDS011;57723;51.698;5.344;2023-03-03T08:28:45;35.63;;;33.53;;
70312;SDS011;57723;51.698;5.344;2023-03-03T08:31:10;36.50;;;34.40;;
70312;SDS011;57723;51.698;5.344;2023-03-03T08:33:36;36.72;;;34.47;;
70312;SDS011;57723;51.698;5.344;2023-03-03T08:36:02;35.63;;;33.30;;
70312;SDS011;57723;51.698;5.344;2023-03-03T08:38:27;34.30;;;32.20;;
70312;SDS011;57723;51.698;5.344;2023-03-03T08:40:52;36.40;;;34.10;;
70312;SDS011;57723;51.698;5.344;2023-03-03T08:43:17;34.07;;;32.03;;
70312;SDS011;57723;51.698;5.344;2023-03-03T08:45:47;36.33;;;34.20;;
70312;SDS011;57723;51.698;5.344;2023-03-03T08:48:13;36.13;;;33.95;;
70312;SDS011;57723;51.698;5.344;2023-03-03T08:50:39;37.63;;;35.37;;
70312;SDS011;57723;51.698;5.344;2023-03-03T08:53:05;35.65;;;33.45;;
70312;SDS011;57723;51.698;5.344;2023-03-03T08:55:31;35.55;;;33.45;;
70312;SDS011;57723;51.698;5.344;2023-03-03T08:57:56;34.00;;;31.80;;
70312;SDS011;57723;51.698;5.344;2023-03-03T09:00:22;36.63;;;34.42;;
70312;SDS011;57723;51.698;5.344;2023-03-03T09:02:48;33.60;;;31.60;;
70312;SDS011;57723;51.698;5.344;2023-03-03T09:05:14;34.88;;;32.78;;
70312;SDS011;57723;51.698;5.344;2023-03-03T09:07:40;36.73;;;34.53;;
70312;SDS011;57723;51.698;5.344;2023-03-03T09:10:07;32.72;;;30.83;;
70312;SDS011;57723;51.698;5.344;2023-03-03T09:12:33;32.63;;;30.73;;
70312;SDS011;57723;51.698;5.344;2023-03-03T09:15:02;32.70;;;30.80;;
70312;SDS011;57723;51.698;5.344;2023-03-03T09:17:33;35.15;;;33.05;;
70312;SDS011;57723;51.698;5.344;2023-03-03T09:19:59;33.85;;;31.85;;
70312;SDS011;57723;51.698;5.344;2023-03-03T09:22:27;34.22;;;32.22;;
70312;SDS011;57723;51.698;5.344;2023-03-03T09:24:53;31.00;;;29.20;;
70312;SDS011;57723;51.698;5.344;2023-03-03T09:27:29;34.00;;;32.05;;
70312;SDS011;57723;51.698;5.344;2023-03-03T09:29:56;34.00;;;32.00;;
70312;SDS011;57723;51.698;5.344;2023-03-03T09:34:53;32.95;;;30.98;;
70312;SDS011;57723;51.698;5.344;2023-03-03T09:37:28;36.47;;;34.37;;
70312;SDS011;57723;51.698;5.344;2023-03-03T09:39:56;36.05;;;33.95;;
70312;SDS011;57723;51.698;5.344;2023-03-03T09:45:08;32.83;;;30.83;;
70312;SDS011;57723;51.698;5.344;2023-03-03T09:47:48;32.97;;;31.08;;
70312;SDS011;57723;51.698;5.344;2023-03-03T09:55:36;33.95;;;31.88;;
70312;SDS011;57723;51.698;5.344;2023-03-03T09:58:08;33.53;;;31.53;;
70312;SDS011;57723;51.698;5.344;2023-03-03T10:08:27;33.25;;;31.30;;
70312;SDS011;57723;51.698;5.344;2023-03-03T10:16:19;36.45;;;34.35;;
70312;SDS011;57723;51.698;5.344;2023-03-03T10:23:51;35.90;;;33.80;;
70312;SDS011;57723;51.698;5.344;2023-03-03T10:36:33;35.17;;;33.07;;
70312;SDS011;57723;51.698;5.344;2023-03-03T10:42:22;35.60;;;33.50;;
70312;SDS011;57723;51.698;5.344;2023-03-03T10:49:59;32.40;;;30.50;;
70312;SDS011;57723;51.698;5.344;2023-03-03T11:00:35;35.03;;;32.95;;
70312;SDS011;57723;51.698;5.344;2023-03-03T11:05:45;33.63;;;31.63;;
70312;SDS011;57723;51.698;5.344;2023-03-03T11:10:46;33.63;;;31.70;;
70312;SDS011;57723;51.698;5.344;2023-03-03T11:13:18;35.50;;;33.47;;
70312;SDS011;57723;51.698;5.344;2023-03-03T11:16:49;32.90;;;30.98;;
70312;SDS011;57723;51.698;5.344;2023-03-03T11:23:55;36.40;;;34.30;;
70312;SDS011;57723;51.698;5.344;2023-03-03T11:26:29;36.00;;;33.90;;
70312;SDS011;57723;51.698;5.344;2023-03-03T11:34:42;34.20;;;32.20;;
70312;SDS011;57723;51.698;5.344;2023-03-03T11:39:54;35.55;;;33.45;;
70312;SDS011;57723;51.698;5.344;2023-03-03T11:45:11;15.52;;;4.10;;
70312;SDS011;57723;51.698;5.344;2023-03-03T11:47:39;5.20;;;1.88;;
70312;SDS011;57723;51.698;5.344;2023-03-03T11:52:50;4.63;;;2.20;;
70312;SDS011;57723;51.698;5.344;2023-03-03T11:55:32;9.53;;;2.47;;
70312;SDS011;57723;51.698;5.344;2023-03-03T11:58:11;6.57;;;2.20;;
70312;SDS011;57723;51.698;5.344;2023-03-03T12:00:59;9.07;;;2.00;;
70312;SDS011;57723;51.698;5.344;2023-03-03T12:03:33;6.80;;;2.10;;
70312;SDS011;57723;51.698;5.344;2023-03-03T12:06:12;8.88;;;2.40;;
70312;SDS011;57723;51.698;5.344;2023-03-03T12:08:55;4.20;;;2.00;;
70312;SDS011;57723;51.698;5.344;2023-03-03T12:27:10;3.50;;;1.80;;
70312;SDS011;57723;51.698;5.344;2023-03-03T12:32:14;4.15;;;1.95;;
70312;SDS011;57723;51.698;5.344;2023-03-03T12:34:53;3.43;;;1.90;;
70312;SDS011;57723;51.698;5.344;2023-03-03T12:40:09;5.10;;;1.80;;
70312;SDS011;57723;51.698;5.344;2023-03-03T12:47:59;3.93;;;1.90;;
70312;SDS011;57723;51.698;5.344;2023-03-03T12:50:41;3.45;;;1.83;;
70312;SDS011;57723;51.698;5.344;2023-03-03T12:58:18;4.18;;;1.67;;
70312;SDS011;57723;51.698;5.344;2023-03-03T13:00:52;3.92;;;1.75;;
70312;SDS011;57723;51.698;5.344;2023-03-03T13:06:03;3.55;;;1.70;;
70312;SDS011;57723;51.698;5.344;2023-03-03T13:16:38;4.03;;;1.70;;
70312;SDS011;57723;51.698;5.344;2023-03-03T13:19:14;3.83;;;1.50;;
70312;SDS011;57723;51.698;5.344;2023-03-03T13:21:44;3.50;;;1.60;;
70312;SDS011;57723;51.698;5.344;2023-03-03T13:26:41;3.38;;;1.60;;
70312;SDS011;57723;51.698;5.344;2023-03-03T13:29:26;3.80;;;1.33;;
70312;SDS011;57723;51.698;5.344;2023-03-03T13:31:54;4.43;;;1.52;;
70312;SDS011;57723;51.698;5.344;2023-03-03T13:36:56;3.60;;;1.60;;
70312;SDS011;57723;51.698;5.344;2023-03-03T13:39:27;2.72;;;1.40;;
70312;SDS011;57723;51.698;5.344;2023-03-03T13:44:29;3.08;;;1.40;;
70312;SDS011;57723;51.698;5.344;2023-03-03T13:46:59;4.45;;;1.90;;
70312;SDS011;57723;51.698;5.344;2023-03-03T13:49:36;3.65;;;1.90;;
70312;SDS011;57723;51.698;5.344;2023-03-03T13:52:05;2.75;;;1.50;;
70312;SDS011;57723;51.698;5.344;2023-03-03T14:02:29;3.35;;;1.50;;
70312;SDS011;57723;51.698;5.344;2023-03-03T14:10:10;3.53;;;1.40;;
70312;SDS011;57723;51.698;5.344;2023-03-03T14:18:09;2.63;;;1.50;;
70312;SDS011;57723;51.698;5.344;2023-03-03T14:20:40;3.63;;;1.55;;
70312;SDS011;57723;51.698;5.344;2023-03-03T14:23:11;2.78;;;1.30;;
70312;SDS011;57723;51.698;5.344;2023-03-03T14:28:23;3.15;;;1.70;;
70312;SDS011;57723;51.698;5.344;2023-03-03T14:30:49;2.60;;;1.50;;
70312;SDS011;57723;51.698;5.344;2023-03-03T14:33:18;2.10;;;1.25;;
70312;SDS011;57723;51.698;5.344;2023-03-03T14:36:00;2.95;;;1.60;;
70312;SDS011;57723;51.698;5.344;2023-03-03T14:38:44;3.60;;;1.67;;
70312;SDS011;57723;51.698;5.344;2023-03-03T14:43:37;3.15;;;1.52;;
70312;SDS011;57723;51.698;5.344;2023-03-03T14:48:50;3.05;;;1.50;;
70312;SDS011;57723;51.698;5.344;2023-03-03T14:53:47;3.58;;;1.48;;
70312;SDS011;57723;51.698;5.344;2023-03-03T14:58:49;2.87;;;1.47;;
70312;SDS011;57723;51.698;5.344;2023-03-03T15:01:31;4.75;;;1.60;;
70312;SDS011;57723;51.698;5.344;2023-03-03T15:04:22;3.53;;;1.83;;
70312;SDS011;57723;51.698;5.344;2023-03-03T15:06:49;3.15;;;1.50;;
70312;SDS011;57723;51.698;5.344;2023-03-03T15:11:44;3.43;;;1.60;;
70312;SDS011;57723;51.698;5.344;2023-03-03T15:14:11;3.13;;;1.60;;
70312;SDS011;57723;51.698;5.344;2023-03-03T15:16:38;2.33;;;1.40;;
70312;SDS011;57723;51.698;5.344;2023-03-03T15:21:32;3.10;;;1.30;;
70312;SDS011;57723;51.698;5.344;2023-03-03T15:29:04;3.83;;;1.45;;
70312;SDS011;57723;51.698;5.344;2023-03-03T15:34:20;2.33;;;1.15;;
70312;SDS011;57723;51.698;5.344;2023-03-03T15:36:56;2.90;;;1.30;;
70312;SDS011;57723;51.698;5.344;2023-03-03T15:39:40;4.40;;;1.50;;
70312;SDS011;57723;51.698;5.344;2023-03-03T15:42:21;2.78;;;1.40;;
70312;SDS011;57723;51.698;5.344;2023-03-03T15:50:22;2.47;;;1.27;;
70312;SDS011;57723;51.698;5.344;2023-03-03T15:52:55;2.57;;;1.43;;
70312;SDS011;57723;51.698;5.344;2023-03-03T16:01:22;3.35;;;1.20;;
70312;SDS011;57723;51.698;5.344;2023-03-03T16:03:26;3.45;;;1.40;;
70312;SDS011;57723;51.698;5.344;2023-03-03T16:05:56;2.43;;;1.37;;
70312;SDS011;57723;51.698;5.344;2023-03-03T16:08:29;3.50;;;1.25;;
70312;SDS011;57723;51.698;5.344;2023-03-03T16:11:06;3.40;;;1.40;;
70312;SDS011;57723;51.698;5.344;2023-03-03T16:13:54;3.00;;;1.23;;
70312;SDS011;57723;51.698;5.344;2023-03-03T16:21:43;3.63;;;1.20;;
70312;SDS011;57723;51.698;5.344;2023-03-03T16:24:22;3.35;;;1.60;;
70312;SDS011;57723;51.698;5.344;2023-03-03T16:26:53;3.67;;;1.60;;
70312;SDS011;57723;51.698;5.344;2023-03-03T16:31:48;3.17;;;1.55;;
70312;SDS011;57723;51.698;5.344;2023-03-03T16:34:18;4.43;;;1.40;;
70312;SDS011;57723;51.698;5.344;2023-03-03T16:41:57;3.78;;;1.70;;
70312;SDS011;57723;51.698;5.344;2023-03-03T16:44:33;3.63;;;1.55;;
70312;SDS011;57723;51.698;5.344;2023-03-03T16:47:06;4.17;;;1.40;;
70312;SDS011;57723;51.698;5.344;2023-03-03T16:49:37;4.40;;;1.65;;
70312;SDS011;57723;51.698;5.344;2023-03-03T16:52:06;3.65;;;1.42;;
70312;SDS011;57723;51.698;5.344;2023-03-03T16:57:17;4.77;;;1.70;;
70312;SDS011;57723;51.698;5.344;2023-03-03T17:00:04;4.03;;;1.80;;
70312;SDS011;57723;51.698;5.344;2023-03-03T17:05:22;3.08;;;1.40;;
70312;SDS011;57723;51.698;5.344;2023-03-03T17:10:39;3.60;;;1.63;;
70312;SDS011;57723;51.698;5.344;2023-03-03T17:13:24;6.43;;;1.80;;
70312;SDS011;57723;51.698;5.344;2023-03-03T17:20:56;4.43;;;1.50;;
70312;SDS011;57723;51.698;5.344;2023-03-03T17:41:15;5.07;;;1.65;;
70312;SDS011;57723;51.698;5.344;2023-03-03T17:46:18;4.78;;;1.65;;
70312;SDS011;57723;51.698;5.344;2023-03-03T17:54:07;4.93;;;1.55;;
70312;SDS011;57723;51.698;5.344;2023-03-03T17:59:22;4.43;;;1.67;;
70312;SDS011;57723;51.698;5.344;2023-03-03T18:04:49;4.93;;;1.60;;
70312;SDS011;57723;51.698;5.344;2023-03-03T18:10:05;4.03;;;1.40;;
70312;SDS011;57723;51.698;5.344;2023-03-03T18:12:52;4.55;;;1.40;;
70312;SDS011;57723;51.698;5.344;2023-03-03T18:15:28;3.40;;;1.30;;
70312;SDS011;57723;51.698;5.344;2023-03-03T18:18:04;3.97;;;1.60;;
70312;SDS011;57723;51.698;5.344;2023-03-03T18:23:19;2.90;;;1.10;;
70312;SDS011;57723;51.698;5.344;2023-03-03T18:25:51;5.22;;;1.55;;
70312;SDS011;57723;51.698;5.344;2023-03-03T18:28:20;4.57;;;1.50;;
70312;SDS011;57723;51.698;5.344;2023-03-03T18:30:53;3.90;;;1.20;;
70312;SDS011;57723;51.698;5.344;2023-03-03T18:36:13;4.30;;;1.42;;
70312;SDS011;57723;51.698;5.344;2023-03-03T18:38:39;3.70;;;1.50;;
70312;SDS011;57723;51.698;5.344;2023-03-03T18:41:09;4.05;;;1.60;;
70312;SDS011;57723;51.698;5.344;2023-03-03T18:46:08;3.53;;;1.50;;
70312;SDS011;57723;51.698;5.344;2023-03-03T18:48:48;3.53;;;1.40;;
70312;SDS011;57723;51.698;5.344;2023-03-03T18:53:59;3.65;;;1.42;;
70312;SDS011;57723;51.698;5.344;2023-03-03T19:04:40;4.15;;;1.40;;
70312;SDS011;57723;51.698;5.344;2023-03-03T19:09:56;2.60;;;1.20;;
70312;SDS011;57723;51.698;5.344;2023-03-03T19:12:41;3.55;;;1.30;;
70312;SDS011;57723;51.698;5.344;2023-03-03T19:17:51;3.67;;;1.40;;
70312;SDS011;57723;51.698;5.344;2023-03-03T19:20:17;3.35;;;1.20;;
70312;SDS011;57723;51.698;5.344;2023-03-03T19:22:47;3.30;;;1.00;;
70312;SDS011;57723;51.698;5.344;2023-03-03T19:27:46;2.28;;;1.05;;
70312;SDS011;57723;51.698;5.344;2023-03-03T19:37:50;3.40;;;1.00;;
70312;SDS011;57723;51.698;5.344;2023-03-03T19:40:24;2.40;;;1.10;;
70312;SDS011;57723;51.698;5.344;2023-03-03T19:43:10;3.78;;;1.00;;
70312;SDS011;57723;51.698;5.344;2023-03-03T19:53:03;2.95;;;1.00;;
70312;SDS011;57723;51.698;5.344;2023-03-03T19:58:21;3.33;;;1.20;;
70312;SDS011;57723;51.698;5.344;2023-03-03T20:01:32;3.45;;;1.20;;
70312;SDS011;57723;51.698;5.344;2023-03-03T20:03:55;3.00;;;1.03;;
70312;SDS011;57723;51.698;5.344;2023-03-03T20:09:02;1.90;;;0.80;;
70312;SDS011;57723;51.698;5.344;2023-03-03T20:11:32;3.58;;;1.27;;
70312;SDS011;57723;51.698;5.344;2023-03-03T20:16:40;6.23;;;0.90;;
70312;SDS011;57723;51.698;5.344;2023-03-03T20:21:37;2.55;;;1.00;;
70312;SDS011;57723;51.698;5.344;2023-03-03T20:34:21;2.77;;;0.97;;